Dauntless Aviation
Greetings, Guest! To participate, [sign up for a free account] or [log in]
Airports Europe France
LFBD
BOD

Merignac

Bordeaux, FRANCE

Airport Info
Edit

Location

Latitude / Longitude: 44°49'41"N / 0°42'56"W
  44°49.698'N / 0°42.936'W
  44.8283 / -0.7156

Nearby radio navigation aids

BD BORDEAUX NDB. 228.2° 9.2nm from BD to field.
BDX BORDEAUX VORTAC on field.
BE BORDEAUX NDB. 262.1° 13.8nm from BE to field.
NB BORDEAUX NDB. 202.9° 20.4nm from NB to field.

Runway Information

Runway 05 /23

Dimensions: 10171 x 148 ft.
Surface: ASP
 
Runway 05
Runway 23
Latitude: 44.819103 44.838694
Longitude: -0.728983 -0.701
Elevation: 160 ft. 160 ft.
Runway true heading: 42.9 222.9
 

Runway 11 /29

Dimensions: 7923 x 148 ft.
Surface: ASP
 
Runway 11
Runway 29
Latitude: 44.831567 44.825411
Longitude: -0.729242 -0.699897
Elevation: 153 ft. 153 ft.
Runway true heading: 103.9 283.9
 

Instrument Procedures

Departure Procedures

  Arrival and Departure

IAPs (Instrument Approach Procedures)

  Assorted Information for LFBD
  Instrument Approach Chart
  Visual Approach Chart
  Visual Approach Chart (Helicopter)
Satellite photo at:
Airport distance calculator
From:
Weather Reports

METAR

LFBD

LFBD 182030Z AUTO 34004KT 320V020 9999 FEW043 14/10 Q1013
LFBC
25.4nm S
LFBC 182030Z AUTO 33005KT 6000 NSC 12/11 Q1013

TAF

LFBD
TAF LFBD 181700Z 1818/1924 31010KT CAVOK BECMG 1900/1903 03010KT
LFBC
25.4nm S
TAF LFBC 181700Z 1818/1918 30010KT CAVOK BECMG 1821/1824 3000 BR SCT005 TEMPO 1906/1907 0400 BCFG BECMG 1907/1909 CAVOK
Safelog

 

Dauntless Aviation

© 2007-2014 Dauntless Aviation, all rights reserved
Information provided via PilotNav comes from a variety of official and unofficial data sources. As errors are possible, do not use PilotNav for primary flight planning purposes. Verify any information that you receive via PilotNav with current and canonical charts and other official documents. The material in this database is subject to database copyrights held by Dauntless Aviation and may not be copied without the express permission of Dauntless Aviation - licenses for use of part of all of this data are available for purchase; enquire via the Dauntless Aviation helpdesk. A number of mechanisms and markers exist in the database to protect against and identify infringement / copyright. Automated queries against this website are stictly prohibited, and all activity is logged and analyzed.